createdAt,value
2023-04-02T00:01:27.954Z,4.80
2023-04-02T00:04:16.248Z,4.20
2023-04-02T00:06:47.534Z,4.88
2023-04-02T00:09:32.014Z,5.07
2023-04-02T00:12:00.418Z,5.30
2023-04-02T00:14:31.518Z,5.45
2023-04-02T00:17:01.377Z,6.00
2023-04-02T00:19:32.932Z,6.13
2023-04-02T00:22:01.615Z,6.38
2023-04-02T00:24:29.238Z,6.50
2023-04-02T00:26:56.976Z,6.55
2023-04-02T00:29:24.713Z,6.57
2023-04-02T00:31:55.384Z,6.03
2023-04-02T00:34:25.397Z,8.13
2023-04-02T00:36:54.380Z,6.35
2023-04-02T00:39:24.119Z,6.30
2023-04-02T00:42:05.176Z,6.75
2023-04-02T00:44:38.089Z,6.22
2023-04-02T00:47:14.943Z,6.28
2023-04-02T00:49:42.830Z,6.25
2023-04-02T00:52:13.261Z,6.50
2023-04-02T00:54:43.898Z,6.63
2023-04-02T00:57:17.844Z,6.70
2023-04-02T00:59:52.442Z,6.70
2023-04-02T01:02:28.120Z,5.93
2023-04-02T01:04:57.361Z,6.50
2023-04-02T01:07:51.853Z,5.80
2023-04-02T01:10:34.001Z,6.00
2023-04-02T01:13:09.814Z,6.22
2023-04-02T01:15:41.398Z,6.13
2023-04-02T01:18:33.191Z,8.50
2023-04-02T01:21:28.213Z,6.93
2023-04-02T01:24:02.549Z,6.40
2023-04-02T01:26:48.090Z,6.30
2023-04-02T01:29:18.711Z,6.37
2023-04-02T01:31:47.673Z,5.78
2023-04-02T01:34:17.234Z,5.55
2023-04-02T01:36:53.147Z,6.33
2023-04-02T01:39:31.130Z,6.20
2023-04-02T01:42:04.559Z,6.07
2023-04-02T01:44:38.851Z,6.63
2023-04-02T01:47:08.724Z,6.53
2023-04-02T01:49:36.452Z,5.72
2023-04-02T01:52:04.119Z,5.97
2023-04-02T01:54:33.234Z,5.47
2023-04-02T01:57:01.091Z,6.90
2023-04-02T01:59:29.486Z,6.60
2023-04-02T02:02:02.710Z,5.53
2023-04-02T02:04:30.658Z,6.50
2023-04-02T02:07:00.724Z,5.07
2023-04-02T02:09:30.301Z,5.53
2023-04-02T02:11:58.527Z,5.60
2023-04-02T02:14:27.402Z,5.70
2023-04-02T02:16:56.667Z,5.00
2023-04-02T02:19:29.299Z,4.63
2023-04-02T02:22:09.117Z,5.43
2023-04-02T02:24:37.462Z,5.15
2023-04-02T02:27:29.344Z,4.70
2023-04-02T02:29:59.648Z,6.47
2023-04-02T02:32:30.905Z,4.78
2023-04-02T02:35:05.335Z,5.13
2023-04-02T02:37:36.759Z,5.40
2023-04-02T02:40:08.546Z,5.10
2023-04-02T02:42:38.084Z,5.97
2023-04-02T02:45:08.124Z,5.55
2023-04-02T02:47:37.527Z,6.15
2023-04-02T02:50:10.322Z,5.10
2023-04-02T02:52:39.981Z,6.05
2023-04-02T02:55:09.995Z,5.72
2023-04-02T02:57:41.002Z,7.68
2023-04-02T03:00:13.083Z,6.68
2023-04-02T03:02:43.336Z,6.13
2023-04-02T03:05:17.754Z,7.88
2023-04-02T03:07:45.639Z,6.10
2023-04-02T03:10:17.531Z,5.88
2023-04-02T03:12:48.016Z,5.45
2023-04-02T03:15:21.384Z,5.05
2023-04-02T03:17:52.849Z,5.18
2023-04-02T03:20:27.159Z,5.80
2023-04-02T03:22:58.876Z,4.72
2023-04-02T03:25:33.105Z,6.28
2023-04-02T03:28:03.658Z,5.60
2023-04-02T03:30:39.452Z,6.00
2023-04-02T03:33:12.289Z,4.43
2023-04-02T03:35:44.846Z,4.22
2023-04-02T03:38:16.395Z,3.63
2023-04-02T03:40:46.006Z,3.75
2023-04-02T03:43:17.957Z,4.13
2023-04-02T03:45:49.416Z,4.78
2023-04-02T03:48:19.670Z,4.80
2023-04-02T03:50:52.203Z,3.05
2023-04-02T03:53:20.008Z,3.05
2023-04-02T03:55:47.936Z,4.13
2023-04-02T03:58:19.999Z,3.40
2023-04-02T04:00:50.842Z,3.38
2023-04-02T04:03:21.466Z,2.88
2023-04-02T04:05:52.906Z,4.03
2023-04-02T04:08:23.866Z,3.78
2023-04-02T04:10:53.115Z,2.85
2023-04-02T04:13:24.482Z,2.10
2023-04-02T04:15:56.300Z,3.63
2023-04-02T04:18:34.905Z,3.20
2023-04-02T04:21:07.602Z,2.65
2023-04-02T04:23:37.884Z,3.30
2023-04-02T04:26:10.613Z,2.15
2023-04-02T04:28:43.746Z,2.55
2023-04-02T04:31:20.962Z,3.73
2023-04-02T04:33:54.833Z,2.42
2023-04-02T04:36:28.581Z,3.43
2023-04-02T04:38:59.337Z,2.03
2023-04-02T04:41:30.085Z,3.67
2023-04-02T04:44:02.308Z,2.67
2023-04-02T04:46:32.711Z,3.10
2023-04-02T04:49:03.987Z,3.70
2023-04-02T04:51:36.602Z,3.38
2023-04-02T04:54:04.360Z,6.38
2023-04-02T04:56:32.957Z,3.27
2023-04-02T04:59:05.433Z,4.85
2023-04-02T05:01:38.518Z,3.20
2023-04-02T05:04:13.061Z,1.90
2023-04-02T05:06:44.573Z,3.63
2023-04-02T05:09:18.879Z,2.37
2023-04-02T05:11:48.459Z,2.00
2023-04-02T05:14:22.748Z,3.15
2023-04-02T05:16:53.382Z,4.28
2023-04-02T05:19:24.933Z,2.67
2023-04-02T05:21:57.579Z,3.10
2023-04-02T05:24:48.791Z,2.85
2023-04-02T05:27:25.254Z,3.53
2023-04-02T05:29:57.075Z,3.58
2023-04-02T05:32:28.331Z,3.47
2023-04-02T05:34:57.338Z,3.90
2023-04-02T05:37:29.195Z,3.70
2023-04-02T05:39:58.383Z,3.47
2023-04-02T05:42:28.781Z,2.25
2023-04-02T05:45:06.779Z,4.30
2023-04-02T05:47:40.619Z,3.75
2023-04-02T05:50:18.927Z,4.05
2023-04-02T05:52:51.722Z,3.13
2023-04-02T05:55:33.517Z,3.90
2023-04-02T05:58:29.364Z,3.95
2023-04-02T06:01:15.492Z,2.80
2023-04-02T06:03:47.873Z,2.70
2023-04-02T06:06:20.632Z,3.95
2023-04-02T06:08:55.744Z,5.90
2023-04-02T06:11:26.603Z,3.00
2023-04-02T06:13:54.425Z,3.67
2023-04-02T06:16:24.795Z,3.80
2023-04-02T06:18:52.554Z,4.50
2023-04-02T06:21:22.129Z,4.10
2023-04-02T06:23:55.228Z,4.32
2023-04-02T06:26:26.424Z,3.65
2023-04-02T06:28:58.849Z,3.15
2023-04-02T06:31:29.689Z,2.17
2023-04-02T06:33:57.711Z,2.97
2023-04-02T06:36:26.626Z,2.95
2023-04-02T06:38:58.774Z,3.23
2023-04-02T06:41:26.632Z,3.33
2023-04-02T06:43:56.723Z,3.73
2023-04-02T06:46:29.672Z,3.00
2023-04-02T06:49:02.412Z,3.97
2023-04-02T06:51:31.783Z,2.83
2023-04-02T06:54:00.995Z,2.07
2023-04-02T06:56:41.698Z,3.97
2023-04-02T06:59:09.832Z,3.42
2023-04-02T07:01:41.152Z,4.00
2023-04-02T07:04:10.160Z,2.63
2023-04-02T07:06:37.890Z,3.28
2023-04-02T07:09:08.066Z,3.43
2023-04-02T07:11:36.103Z,4.45
2023-04-02T07:14:04.151Z,5.57
2023-04-02T07:16:33.597Z,3.75
2023-04-02T07:19:03.006Z,4.18
2023-04-02T07:21:31.075Z,3.83
2023-04-02T07:23:59.144Z,5.03
2023-04-02T07:26:28.978Z,2.97
2023-04-02T07:28:57.547Z,2.83
2023-04-02T07:31:27.051Z,4.65
2023-04-02T07:33:58.010Z,3.40
2023-04-02T07:36:25.837Z,4.20
2023-04-02T07:38:53.946Z,3.13
2023-04-02T07:41:22.082Z,3.42
2023-04-02T07:43:51.379Z,2.92
2023-04-02T07:46:20.289Z,3.07
2023-04-02T07:48:48.605Z,4.00
2023-04-02T07:51:18.529Z,4.55
2023-04-02T07:53:50.216Z,2.92
2023-04-02T07:56:20.051Z,4.67
2023-04-02T07:58:48.277Z,4.72
2023-04-02T08:01:19.964Z,3.20
2023-04-02T08:03:48.519Z,3.28
2023-04-02T08:06:16.731Z,4.87
2023-04-02T08:08:44.877Z,4.47
2023-04-02T08:11:12.751Z,2.83
2023-04-02T08:13:40.687Z,3.87
2023-04-02T08:16:09.021Z,4.47
2023-04-02T08:18:38.342Z,3.65
2023-04-02T08:21:07.765Z,3.13
2023-04-02T08:23:35.878Z,3.83
2023-04-02T08:26:03.627Z,3.22
2023-04-02T08:28:31.522Z,2.63
2023-04-02T08:30:59.338Z,2.30
2023-04-02T08:33:27.215Z,2.20
2023-04-02T08:35:56.370Z,3.00
2023-04-02T08:38:24.187Z,2.53
2023-04-02T08:40:53.883Z,3.07
2023-04-02T08:43:50.622Z,2.65
2023-04-02T08:46:22.848Z,3.60
2023-04-02T08:48:55.290Z,3.25
2023-04-02T08:51:26.471Z,2.78
2023-04-02T08:53:56.916Z,4.00
2023-04-02T08:56:29.964Z,3.60
2023-04-02T08:58:59.468Z,2.20
2023-04-02T09:01:37.684Z,2.72
2023-04-02T09:04:11.145Z,3.17
2023-04-02T09:06:40.266Z,3.00
2023-04-02T09:09:09.743Z,4.13
2023-04-02T09:11:42.920Z,3.63
2023-04-02T09:14:17.312Z,2.83
2023-04-02T09:16:46.479Z,3.63
2023-04-02T09:19:17.733Z,3.72
2023-04-02T09:21:53.723Z,3.20
2023-04-02T09:24:21.522Z,2.83
2023-04-02T09:26:49.382Z,3.97
2023-04-02T09:29:42.826Z,3.72
2023-04-02T09:32:27.943Z,2.97
2023-04-02T09:35:24.628Z,2.72
2023-04-02T09:38:19.000Z,2.70
2023-04-02T09:40:50.636Z,3.78
2023-04-02T09:43:19.982Z,2.35
2023-04-02T09:45:57.776Z,5.70
2023-04-02T09:48:27.544Z,3.50
2023-04-02T09:51:05.990Z,4.43
2023-04-02T09:53:37.383Z,3.90
2023-04-02T09:56:13.873Z,3.00
2023-04-02T09:58:42.321Z,3.60
2023-04-02T10:01:30.020Z,3.40
2023-04-02T10:03:59.265Z,3.58
2023-04-02T10:06:29.069Z,1.55
2023-04-02T10:08:58.754Z,2.92
2023-04-02T10:11:43.747Z,2.50
2023-04-02T10:14:20.365Z,1.83
2023-04-02T10:16:52.103Z,2.42
2023-04-02T10:19:26.496Z,3.10
2023-04-02T10:21:55.721Z,3.38
2023-04-02T10:24:29.569Z,3.65
2023-04-02T10:27:09.850Z,2.10
2023-04-02T10:29:52.583Z,4.07
2023-04-02T10:32:22.968Z,2.72
2023-04-02T10:34:55.379Z,2.95
2023-04-02T10:37:52.724Z,2.72
2023-04-02T10:40:28.414Z,4.30
2023-04-02T10:44:18.934Z,2.75
2023-04-02T10:46:55.083Z,1.60
2023-04-02T10:49:29.128Z,2.78
2023-04-02T10:52:00.830Z,3.75
2023-04-02T10:54:42.651Z,2.17
2023-04-02T10:57:17.807Z,4.13
2023-04-02T10:59:52.464Z,2.67
2023-04-02T11:02:31.738Z,2.67
2023-04-02T11:05:02.905Z,2.13
2023-04-02T11:07:44.681Z,2.88
2023-04-02T11:10:15.322Z,1.67
2023-04-02T11:12:47.079Z,2.38
2023-04-02T11:15:19.813Z,2.10
2023-04-02T11:17:48.069Z,3.55
2023-04-02T11:20:44.891Z,1.95
2023-04-02T11:23:13.963Z,1.92
2023-04-02T11:25:42.744Z,1.65
2023-04-02T11:28:15.565Z,2.00
2023-04-02T11:30:44.730Z,2.50
2023-04-02T11:33:44.707Z,2.03
2023-04-02T11:36:50.971Z,1.42
2023-04-02T11:39:53.489Z,2.53
2023-04-02T11:42:30.423Z,3.55
2023-04-02T11:45:01.331Z,3.35
2023-04-02T11:47:31.036Z,2.55
2023-04-02T11:50:04.154Z,3.28
2023-04-02T11:52:34.603Z,2.13
2023-04-02T11:55:06.096Z,2.22
2023-04-02T11:57:57.221Z,3.92
2023-04-02T12:00:34.178Z,1.48
2023-04-02T12:03:25.663Z,1.75
2023-04-02T12:05:58.555Z,2.05
2023-04-02T12:08:47.286Z,1.80
2023-04-02T12:11:19.088Z,2.30
2023-04-02T12:13:54.384Z,2.20
2023-04-02T12:16:24.230Z,2.03
2023-04-02T12:18:54.927Z,5.35
2023-04-02T12:21:24.359Z,1.92
2023-04-02T12:23:54.069Z,1.47
2023-04-02T12:26:32.148Z,2.65
2023-04-02T12:29:26.284Z,1.60
2023-04-02T12:31:55.510Z,3.30
2023-04-02T12:34:26.207Z,1.85
2023-04-02T12:36:55.858Z,2.00
2023-04-02T12:39:25.226Z,1.83
2023-04-02T12:41:55.354Z,3.40
2023-04-02T12:44:24.007Z,2.45
2023-04-02T12:46:52.390Z,1.98
2023-04-02T12:49:26.745Z,2.05
2023-04-02T12:51:55.926Z,2.28
2023-04-02T12:54:23.835Z,2.57
2023-04-02T12:56:51.953Z,2.97
2023-04-02T12:59:29.794Z,2.00
2023-04-02T13:01:59.231Z,1.50
2023-04-02T13:04:28.955Z,2.78
2023-04-02T13:06:57.504Z,1.55
2023-04-02T13:09:31.939Z,2.40
2023-04-02T13:12:00.452Z,2.20
2023-04-02T13:14:28.281Z,1.38
2023-04-02T13:16:56.469Z,1.90
2023-04-02T13:19:30.947Z,1.93
2023-04-02T13:22:00.120Z,1.60
2023-04-02T13:24:29.648Z,2.63
2023-04-02T13:26:58.962Z,2.58
2023-04-02T13:29:29.486Z,2.00
2023-04-02T13:31:59.124Z,2.58
2023-04-02T13:34:27.031Z,1.92
2023-04-02T13:36:57.391Z,1.33
2023-04-02T13:39:25.381Z,1.23
2023-04-02T13:41:54.767Z,1.80
2023-04-02T13:44:24.501Z,1.27
2023-04-02T13:46:52.918Z,1.88
2023-04-02T13:49:20.700Z,2.88
2023-04-02T13:51:50.540Z,1.60
2023-04-02T13:54:23.299Z,2.47
2023-04-02T13:56:51.711Z,1.83
2023-04-02T13:59:19.550Z,1.50
2023-04-02T14:01:48.570Z,1.50
2023-04-02T14:04:20.322Z,1.77
2023-04-02T14:07:11.975Z,2.17
2023-04-02T14:09:53.709Z,2.03
2023-04-02T14:12:29.855Z,1.90
2023-04-02T14:15:15.760Z,1.40
2023-04-02T14:17:53.299Z,1.63
2023-04-02T14:20:27.084Z,2.38
2023-04-02T14:23:05.937Z,2.40
2023-04-02T14:25:39.730Z,1.55
2023-04-02T14:28:12.380Z,1.63
2023-04-02T14:30:48.740Z,2.95
2023-04-02T14:33:24.651Z,2.05
2023-04-02T14:35:56.387Z,1.50
2023-04-02T14:38:29.826Z,2.10
2023-04-02T14:41:01.212Z,1.70
2023-04-02T14:43:32.401Z,1.88
2023-04-02T14:46:01.634Z,1.95
2023-04-02T14:48:37.997Z,1.42
2023-04-02T14:51:08.877Z,2.00
2023-04-02T14:53:49.473Z,2.63
2023-04-02T14:56:20.172Z,1.58
2023-04-02T14:58:51.755Z,2.60
2023-04-02T15:01:21.740Z,1.90
2023-04-02T15:03:53.183Z,1.35
2023-04-02T15:06:24.608Z,1.47
2023-04-02T15:09:08.348Z,1.70
2023-04-02T15:11:40.627Z,1.30
2023-04-02T15:14:14.033Z,1.35
2023-04-02T15:16:42.016Z,2.83
2023-04-02T15:19:13.422Z,0.98
2023-04-02T15:22:09.301Z,1.60
2023-04-02T15:24:44.109Z,0.98
2023-04-02T15:27:25.523Z,1.52
2023-04-02T15:29:58.629Z,2.40
2023-04-02T15:33:35.925Z,2.83
2023-04-02T15:36:18.743Z,2.20
2023-04-02T15:38:49.243Z,1.75
2023-04-02T15:41:23.602Z,1.63
2023-04-02T15:43:57.744Z,1.67
2023-04-02T15:46:28.316Z,1.57
2023-04-02T15:49:08.539Z,3.28
2023-04-02T15:52:01.378Z,2.92
2023-04-02T15:54:43.827Z,3.67
2023-04-02T15:58:20.855Z,1.33
2023-04-02T16:00:54.896Z,1.70
2023-04-02T16:03:35.009Z,1.85
2023-04-02T16:06:16.993Z,1.73
2023-04-02T16:08:57.360Z,2.80
2023-04-02T16:11:27.361Z,1.77
2023-04-02T16:14:02.347Z,2.10
2023-04-02T16:16:33.421Z,2.10
2023-04-02T16:19:04.554Z,1.45
2023-04-02T16:21:34.218Z,1.20
2023-04-02T16:24:01.885Z,1.95
2023-04-02T16:26:47.735Z,1.42
2023-04-02T16:29:35.607Z,3.05
2023-04-02T16:32:19.665Z,1.25
2023-04-02T16:34:52.470Z,1.30
2023-04-02T16:37:26.116Z,2.20
2023-04-02T16:39:58.246Z,1.90
2023-04-02T16:42:35.492Z,1.67
2023-04-02T16:45:17.397Z,1.40
2023-04-02T16:47:55.025Z,1.53
2023-04-02T16:50:31.970Z,1.67
2023-04-02T16:53:06.136Z,1.33
2023-04-02T16:55:44.396Z,2.20
2023-04-02T16:58:25.211Z,1.55
2023-04-02T17:00:57.455Z,1.08
2023-04-02T17:03:42.001Z,2.17
2023-04-02T17:06:11.002Z,2.40
2023-04-02T17:08:43.591Z,1.80
2023-04-02T17:11:29.367Z,2.53
2023-04-02T17:14:05.860Z,3.58
2023-04-02T17:16:38.111Z,1.85
2023-04-02T17:19:10.734Z,1.23
2023-04-02T17:21:41.319Z,1.52
2023-04-02T17:24:18.581Z,2.03
2023-04-02T17:26:48.371Z,2.50
2023-04-02T17:29:20.194Z,2.28
2023-04-02T17:31:50.845Z,1.42
2023-04-02T17:34:20.749Z,1.27
2023-04-02T17:36:55.594Z,1.08
2023-04-02T17:39:25.602Z,1.58
2023-04-02T17:41:57.398Z,1.67
2023-04-02T17:44:36.190Z,1.65
2023-04-02T17:47:10.551Z,1.40
2023-04-02T17:49:46.989Z,1.50
2023-04-02T17:52:18.076Z,1.20
2023-04-02T17:54:51.582Z,1.33
2023-04-02T17:57:33.473Z,0.85
2023-04-02T18:00:11.437Z,1.38
2023-04-02T18:02:55.203Z,1.63
2023-04-02T18:05:27.008Z,1.55
2023-04-02T18:08:00.642Z,1.80
2023-04-02T18:10:31.037Z,1.77
2023-04-02T18:13:00.918Z,1.13
2023-04-02T18:15:40.058Z,2.35
2023-04-02T18:18:16.572Z,1.50
2023-04-02T18:20:48.074Z,2.40
2023-04-02T18:23:30.153Z,1.98
2023-04-02T18:26:03.556Z,1.20
2023-04-02T18:28:47.285Z,2.05
2023-04-02T18:31:19.378Z,1.90
2023-04-02T18:34:09.260Z,2.60
2023-04-02T18:36:42.124Z,1.65
2023-04-02T18:39:15.516Z,1.80
2023-04-02T18:41:47.585Z,1.97
2023-04-02T18:44:30.734Z,2.37
2023-04-02T18:47:02.373Z,0.97
2023-04-02T18:49:36.912Z,1.38
2023-04-02T18:52:10.893Z,1.23
2023-04-02T18:54:41.258Z,1.30
2023-04-02T18:57:12.579Z,2.13
2023-04-02T18:59:42.799Z,1.45
2023-04-02T19:02:36.089Z,2.03
2023-04-02T19:05:07.244Z,2.78
2023-04-02T19:07:37.771Z,1.98
2023-04-02T19:10:25.886Z,1.57
2023-04-02T19:12:53.627Z,2.00
2023-04-02T19:15:22.890Z,4.15
2023-04-02T19:20:45.435Z,3.53
2023-04-02T19:23:24.610Z,2.92
2023-04-02T19:26:01.784Z,2.80
2023-04-02T19:28:32.431Z,3.83
2023-04-02T19:31:10.626Z,4.55
2023-04-02T19:33:43.823Z,2.85
2023-04-02T19:36:27.557Z,3.57
2023-04-02T19:39:05.102Z,1.90
2023-04-02T19:41:35.987Z,3.23
2023-04-02T19:44:04.011Z,2.45
2023-04-02T19:46:31.821Z,2.47
2023-04-02T19:49:03.734Z,3.20
2023-04-02T19:51:33.532Z,2.35
2023-04-02T19:54:01.514Z,2.35
2023-04-02T19:56:29.727Z,2.13
2023-04-02T19:58:58.297Z,2.22
2023-04-02T20:01:27.849Z,3.42
2023-04-02T20:03:55.650Z,4.30
2023-04-02T20:06:23.899Z,1.90
2023-04-02T20:08:53.059Z,2.15
2023-04-02T20:11:20.960Z,2.45
2023-04-02T20:13:50.119Z,2.70
2023-04-02T20:16:18.051Z,2.65
2023-04-02T20:18:45.762Z,1.85
2023-04-02T20:21:13.590Z,2.45
2023-04-02T20:23:41.423Z,1.92
2023-04-02T20:26:10.512Z,2.97
2023-04-02T20:28:38.374Z,2.33
2023-04-02T20:31:08.391Z,2.17
2023-04-02T20:33:36.730Z,1.83
2023-04-02T20:36:06.791Z,1.70
2023-04-02T20:38:35.923Z,2.17
2023-04-02T20:41:04.776Z,1.50
2023-04-02T20:43:34.904Z,2.75
2023-04-02T20:46:05.597Z,1.80
2023-04-02T20:48:33.732Z,2.13
2023-04-02T20:51:03.035Z,2.13
2023-04-02T20:53:31.596Z,2.97
2023-04-02T20:56:03.862Z,2.63
2023-04-02T20:58:33.140Z,1.58
2023-04-02T21:01:11.844Z,1.55
2023-04-02T21:03:40.586Z,3.08
2023-04-02T21:06:08.854Z,1.50
2023-04-02T21:08:37.034Z,1.37
2023-04-02T21:11:06.321Z,1.58
2023-04-02T21:13:36.791Z,1.30
2023-04-02T21:16:05.138Z,1.70
2023-04-02T21:18:33.262Z,2.38
2023-04-02T21:21:02.506Z,1.65
2023-04-02T21:23:30.216Z,1.27
2023-04-02T21:25:59.353Z,1.67
2023-04-02T21:28:27.401Z,1.65
2023-04-02T21:31:04.820Z,1.48
2023-04-02T21:33:34.134Z,2.00
2023-04-02T21:36:06.933Z,1.90
2023-04-02T21:38:34.683Z,1.38
2023-04-02T21:41:13.167Z,0.93
2023-04-02T21:43:40.988Z,1.70
2023-04-02T21:46:10.343Z,1.67
2023-04-02T21:48:40.619Z,1.70
2023-04-02T21:51:09.961Z,1.83
2023-04-02T21:53:38.941Z,1.42
2023-04-02T21:56:08.505Z,1.20
2023-04-02T21:58:36.529Z,1.08
2023-04-02T22:01:07.142Z,1.20
2023-04-02T22:03:38.985Z,1.58
2023-04-02T22:06:08.647Z,2.08
2023-04-02T22:08:36.786Z,1.55
2023-04-02T22:11:09.264Z,2.15
2023-04-02T22:13:37.373Z,1.25
2023-04-02T22:16:07.972Z,1.70
2023-04-02T22:18:35.836Z,1.42
2023-04-02T22:21:05.080Z,2.17
2023-04-02T22:23:33.130Z,1.88
2023-04-02T22:26:01.656Z,1.40
2023-04-02T22:28:30.141Z,1.77
2023-04-02T22:31:05.522Z,1.70
2023-04-02T22:33:33.550Z,3.33
2023-04-02T22:36:02.037Z,1.52
2023-04-02T22:38:31.723Z,1.77
2023-04-02T22:41:07.448Z,1.30
2023-04-02T22:43:35.479Z,1.25
2023-04-02T22:46:03.546Z,2.22
2023-04-02T22:48:31.290Z,1.92
2023-04-02T22:50:59.367Z,1.60
2023-04-02T22:53:27.432Z,1.60
2023-04-02T22:55:56.617Z,1.58
2023-04-02T22:58:26.622Z,1.80
2023-04-02T23:00:54.279Z,2.42
2023-04-02T23:03:22.131Z,1.75
2023-04-02T23:05:59.547Z,1.85
2023-04-02T23:08:27.277Z,1.70
2023-04-02T23:11:02.890Z,1.77
2023-04-02T23:13:31.101Z,1.85
2023-04-02T23:15:59.080Z,2.15
2023-04-02T23:18:26.867Z,1.65
2023-04-02T23:20:55.339Z,1.63
2023-04-02T23:23:23.208Z,2.22
2023-04-02T23:25:51.018Z,2.38
2023-04-02T23:28:20.204Z,1.15
2023-04-02T23:30:47.930Z,1.98
2023-04-02T23:33:15.612Z,1.88
2023-04-02T23:35:43.308Z,2.08
2023-04-02T23:38:11.226Z,2.85
2023-04-02T23:40:38.928Z,2.88
2023-04-02T23:43:06.611Z,2.20
2023-04-02T23:45:35.668Z,2.17
2023-04-02T23:48:03.386Z,2.15
2023-04-02T23:50:31.042Z,2.23
2023-04-02T23:52:58.840Z,2.50
2023-04-02T23:55:26.562Z,1.98
2023-04-02T23:57:54.206Z,2.43
